sensor_id;sensor_type;location;lat;lon;timestamp;P1;durP1;ratioP1;P2;durP2;ratioP2
68647;SDS011;55632;51.962;16.116;2022-09-12T00:01:52;4.30;;;3.30;;
68647;SDS011;55632;51.962;16.116;2022-09-12T00:06:53;4.63;;;3.50;;
68647;SDS011;55632;51.962;16.116;2022-09-12T00:11:53;6.68;;;3.60;;
68647;SDS011;55632;51.962;16.116;2022-09-12T00:16:57;3.95;;;3.13;;
68647;SDS011;55632;51.962;16.116;2022-09-12T00:21:59;6.13;;;3.65;;
68647;SDS011;55632;51.962;16.116;2022-09-12T00:27:00;4.88;;;3.10;;
68647;SDS011;55632;51.962;16.116;2022-09-12T00:32:01;3.55;;;2.72;;
68647;SDS011;55632;51.962;16.116;2022-09-12T00:37:02;4.20;;;3.00;;
68647;SDS011;55632;51.962;16.116;2022-09-12T00:42:03;5.13;;;3.80;;
68647;SDS011;55632;51.962;16.116;2022-09-12T00:47:05;8.80;;;3.80;;
68647;SDS011;55632;51.962;16.116;2022-09-12T00:52:15;4.47;;;3.67;;
68647;SDS011;55632;51.962;16.116;2022-09-12T00:57:22;3.65;;;3.22;;
68647;SDS011;55632;51.962;16.116;2022-09-12T01:02:27;5.50;;;3.85;;
68647;SDS011;55632;51.962;16.116;2022-09-12T01:07:29;5.40;;;3.58;;
68647;SDS011;55632;51.962;16.116;2022-09-12T01:12:30;3.30;;;3.00;;
68647;SDS011;55632;51.962;16.116;2022-09-12T01:17:39;5.15;;;3.47;;
68647;SDS011;55632;51.962;16.116;2022-09-12T01:33:27;4.88;;;3.72;;
68647;SDS011;55632;51.962;16.116;2022-09-12T01:39:05;3.95;;;3.50;;
68647;SDS011;55632;51.962;16.116;2022-09-12T01:50:01;6.50;;;3.83;;
68647;SDS011;55632;51.962;16.116;2022-09-12T01:55:12;9.07;;;3.58;;
68647;SDS011;55632;51.962;16.116;2022-09-12T02:00:17;6.20;;;3.65;;
68647;SDS011;55632;51.962;16.116;2022-09-12T02:05:21;6.18;;;3.45;;
68647;SDS011;55632;51.962;16.116;2022-09-12T02:10:23;3.97;;;3.58;;
68647;SDS011;55632;51.962;16.116;2022-09-12T02:15:31;5.85;;;3.83;;
68647;SDS011;55632;51.962;16.116;2022-09-12T02:20:36;6.82;;;4.03;;
68647;SDS011;55632;51.962;16.116;2022-09-12T02:25:39;4.90;;;3.75;;
68647;SDS011;55632;51.962;16.116;2022-09-12T02:31:26;4.32;;;3.47;;
68647;SDS011;55632;51.962;16.116;2022-09-12T02:41:24;4.00;;;3.60;;
68647;SDS011;55632;51.962;16.116;2022-09-12T02:46:27;6.53;;;3.88;;
68647;SDS011;55632;51.962;16.116;2022-09-12T02:51:43;6.95;;;3.65;;
68647;SDS011;55632;51.962;16.116;2022-09-12T02:56:45;8.60;;;4.25;;
68647;SDS011;55632;51.962;16.116;2022-09-12T03:12:07;7.63;;;4.20;;
68647;SDS011;55632;51.962;16.116;2022-09-12T03:27:37;8.18;;;4.30;;
68647;SDS011;55632;51.962;16.116;2022-09-12T03:32:44;5.60;;;4.40;;
68647;SDS011;55632;51.962;16.116;2022-09-12T03:37:50;9.32;;;4.32;;
68647;SDS011;55632;51.962;16.116;2022-09-12T03:42:51;7.00;;;4.40;;
68647;SDS011;55632;51.962;16.116;2022-09-12T03:47:52;8.15;;;4.18;;
68647;SDS011;55632;51.962;16.116;2022-09-12T03:52:53;5.90;;;4.72;;
68647;SDS011;55632;51.962;16.116;2022-09-12T03:57:54;6.00;;;4.40;;
68647;SDS011;55632;51.962;16.116;2022-09-12T04:02:55;4.18;;;3.38;;
68647;SDS011;55632;51.962;16.116;2022-09-12T04:07:56;4.25;;;3.42;;
68647;SDS011;55632;51.962;16.116;2022-09-12T04:12:57;11.50;;;4.75;;
68647;SDS011;55632;51.962;16.116;2022-09-12T04:17:57;11.25;;;5.35;;
68647;SDS011;55632;51.962;16.116;2022-09-12T04:22:59;5.63;;;4.85;;
68647;SDS011;55632;51.962;16.116;2022-09-12T04:27:59;6.97;;;4.95;;
68647;SDS011;55632;51.962;16.116;2022-09-12T04:33:01;7.07;;;5.97;;
68647;SDS011;55632;51.962;16.116;2022-09-12T04:38:01;8.88;;;7.38;;
68647;SDS011;55632;51.962;16.116;2022-09-12T04:43:03;6.95;;;4.90;;
68647;SDS011;55632;51.962;16.116;2022-09-12T04:48:07;7.35;;;5.50;;
68647;SDS011;55632;51.962;16.116;2022-09-12T04:53:08;7.78;;;4.80;;
68647;SDS011;55632;51.962;16.116;2022-09-12T04:58:12;8.50;;;5.80;;
68647;SDS011;55632;51.962;16.116;2022-09-12T05:03:13;11.35;;;6.95;;
68647;SDS011;55632;51.962;16.116;2022-09-12T05:08:16;11.73;;;7.95;;
68647;SDS011;55632;51.962;16.116;2022-09-12T05:13:17;6.30;;;4.88;;
68647;SDS011;55632;51.962;16.116;2022-09-12T05:18:18;16.58;;;12.02;;
68647;SDS011;55632;51.962;16.116;2022-09-12T05:23:18;8.93;;;6.68;;
68647;SDS011;55632;51.962;16.116;2022-09-12T05:28:20;9.63;;;6.05;;
68647;SDS011;55632;51.962;16.116;2022-09-12T05:33:21;10.02;;;6.47;;
68647;SDS011;55632;51.962;16.116;2022-09-12T05:38:22;7.88;;;5.95;;
68647;SDS011;55632;51.962;16.116;2022-09-12T05:43:24;10.20;;;5.50;;
68647;SDS011;55632;51.962;16.116;2022-09-12T05:48:25;10.55;;;5.70;;
68647;SDS011;55632;51.962;16.116;2022-09-12T05:53:26;13.93;;;6.15;;
68647;SDS011;55632;51.962;16.116;2022-09-12T05:58:27;10.73;;;5.97;;
68647;SDS011;55632;51.962;16.116;2022-09-12T06:03:28;7.60;;;5.30;;
68647;SDS011;55632;51.962;16.116;2022-09-12T06:08:30;8.75;;;5.82;;
68647;SDS011;55632;51.962;16.116;2022-09-12T06:13:32;8.18;;;6.03;;
68647;SDS011;55632;51.962;16.116;2022-09-12T06:18:36;9.73;;;6.18;;
68647;SDS011;55632;51.962;16.116;2022-09-12T06:23:38;8.15;;;5.63;;
68647;SDS011;55632;51.962;16.116;2022-09-12T06:28:43;9.48;;;6.13;;
68647;SDS011;55632;51.962;16.116;2022-09-12T06:33:46;13.52;;;6.28;;
68647;SDS011;55632;51.962;16.116;2022-09-12T06:38:52;9.15;;;5.53;;
68647;SDS011;55632;51.962;16.116;2022-09-12T06:43:59;13.27;;;6.20;;
68647;SDS011;55632;51.962;16.116;2022-09-12T06:49:06;8.43;;;6.30;;
68647;SDS011;55632;51.962;16.116;2022-09-12T06:54:10;17.83;;;6.90;;
68647;SDS011;55632;51.962;16.116;2022-09-12T06:59:13;8.77;;;6.07;;
68647;SDS011;55632;51.962;16.116;2022-09-12T07:04:14;13.98;;;5.97;;
68647;SDS011;55632;51.962;16.116;2022-09-12T07:09:15;7.90;;;5.03;;
68647;SDS011;55632;51.962;16.116;2022-09-12T07:14:16;10.73;;;6.15;;
68647;SDS011;55632;51.962;16.116;2022-09-12T07:19:17;10.18;;;5.60;;
68647;SDS011;55632;51.962;16.116;2022-09-12T07:24:20;7.05;;;5.30;;
68647;SDS011;55632;51.962;16.116;2022-09-12T07:29:24;9.68;;;5.07;;
68647;SDS011;55632;51.962;16.116;2022-09-12T07:34:25;6.97;;;4.97;;
68647;SDS011;55632;51.962;16.116;2022-09-12T07:39:31;11.70;;;5.10;;
68647;SDS011;55632;51.962;16.116;2022-09-12T07:44:31;6.22;;;4.65;;
68647;SDS011;55632;51.962;16.116;2022-09-12T07:49:32;12.90;;;4.50;;
68647;SDS011;55632;51.962;16.116;2022-09-12T07:54:36;9.52;;;4.43;;
68647;SDS011;55632;51.962;16.116;2022-09-12T07:59:37;11.00;;;4.60;;
68647;SDS011;55632;51.962;16.116;2022-09-12T08:04:41;6.85;;;3.85;;
68647;SDS011;55632;51.962;16.116;2022-09-12T08:09:44;12.40;;;4.55;;
68647;SDS011;55632;51.962;16.116;2022-09-12T08:14:45;4.82;;;4.07;;
68647;SDS011;55632;51.962;16.116;2022-09-12T08:19:47;9.20;;;4.03;;
68647;SDS011;55632;51.962;16.116;2022-09-12T08:24:48;6.38;;;4.07;;
68647;SDS011;55632;51.962;16.116;2022-09-12T08:29:49;8.32;;;3.78;;
68647;SDS011;55632;51.962;16.116;2022-09-12T08:34:49;4.40;;;3.63;;
68647;SDS011;55632;51.962;16.116;2022-09-12T08:39:54;5.18;;;3.63;;
68647;SDS011;55632;51.962;16.116;2022-09-12T08:45:10;5.35;;;3.17;;
68647;SDS011;55632;51.962;16.116;2022-09-12T08:50:18;5.25;;;2.90;;
68647;SDS011;55632;51.962;16.116;2022-09-12T09:00:30;6.15;;;3.55;;
68647;SDS011;55632;51.962;16.116;2022-09-12T09:05:43;5.25;;;3.10;;
68647;SDS011;55632;51.962;16.116;2022-09-12T09:11:08;6.28;;;3.42;;
68647;SDS011;55632;51.962;16.116;2022-09-12T09:16:48;6.97;;;3.10;;
68647;SDS011;55632;51.962;16.116;2022-09-12T09:26:57;7.50;;;2.90;;
68647;SDS011;55632;51.962;16.116;2022-09-12T09:32:09;4.68;;;2.55;;
68647;SDS011;55632;51.962;16.116;2022-09-12T09:37:20;9.98;;;3.20;;
68647;SDS011;55632;51.962;16.116;2022-09-12T09:53:57;2.47;;;2.28;;
68647;SDS011;55632;51.962;16.116;2022-09-12T10:04:33;6.05;;;2.65;;
68647;SDS011;55632;51.962;16.116;2022-09-12T10:09:38;4.32;;;2.50;;
68647;SDS011;55632;51.962;16.116;2022-09-12T10:14:41;5.88;;;2.35;;
68647;SDS011;55632;51.962;16.116;2022-09-12T10:19:42;6.03;;;2.15;;
68647;SDS011;55632;51.962;16.116;2022-09-12T10:24:46;3.55;;;2.10;;
68647;SDS011;55632;51.962;16.116;2022-09-12T10:29:52;7.00;;;2.63;;
68647;SDS011;55632;51.962;16.116;2022-09-12T10:40:23;4.57;;;2.30;;
68647;SDS011;55632;51.962;16.116;2022-09-12T10:45:31;2.42;;;2.00;;
68647;SDS011;55632;51.962;16.116;2022-09-12T10:50:37;5.03;;;2.47;;
68647;SDS011;55632;51.962;16.116;2022-09-12T11:17:18;2.90;;;2.10;;
68647;SDS011;55632;51.962;16.116;2022-09-12T11:33:52;11.07;;;2.45;;
68647;SDS011;55632;51.962;16.116;2022-09-12T11:39:04;6.68;;;2.80;;
68647;SDS011;55632;51.962;16.116;2022-09-12T11:44:22;3.33;;;2.78;;
68647;SDS011;55632;51.962;16.116;2022-09-12T11:49:39;6.43;;;2.90;;
68647;SDS011;55632;51.962;16.116;2022-09-12T11:59:51;6.05;;;3.20;;
68647;SDS011;55632;51.962;16.116;2022-09-12T12:16:27;14.45;;;3.50;;
68647;SDS011;55632;51.962;16.116;2022-09-12T12:52:47;11.18;;;3.53;;
68647;SDS011;55632;51.962;16.116;2022-09-12T12:57:52;7.40;;;3.17;;
68647;SDS011;55632;51.962;16.116;2022-09-12T13:08:04;6.63;;;3.78;;
68647;SDS011;55632;51.962;16.116;2022-09-12T13:13:16;3.38;;;2.85;;
68647;SDS011;55632;51.962;16.116;2022-09-12T13:18:28;4.43;;;3.15;;
68647;SDS011;55632;51.962;16.116;2022-09-12T13:24:14;2.85;;;2.53;;
68647;SDS011;55632;51.962;16.116;2022-09-12T13:29:21;4.40;;;3.60;;
68647;SDS011;55632;51.962;16.116;2022-09-12T13:34:28;7.88;;;3.38;;
68647;SDS011;55632;51.962;16.116;2022-09-12T13:39:48;8.35;;;3.00;;
68647;SDS011;55632;51.962;16.116;2022-09-12T13:44:57;8.05;;;3.60;;
68647;SDS011;55632;51.962;16.116;2022-09-12T13:50:21;5.88;;;3.47;;
68647;SDS011;55632;51.962;16.116;2022-09-12T13:55:32;17.10;;;8.63;;
68647;SDS011;55632;51.962;16.116;2022-09-12T14:00:37;13.20;;;4.38;;
68647;SDS011;55632;51.962;16.116;2022-09-12T14:05:58;8.80;;;4.10;;
68647;SDS011;55632;51.962;16.116;2022-09-12T14:10:59;6.43;;;3.45;;
68647;SDS011;55632;51.962;16.116;2022-09-12T14:16:27;4.60;;;3.50;;
68647;SDS011;55632;51.962;16.116;2022-09-12T14:21:32;12.65;;;4.90;;
68647;SDS011;55632;51.962;16.116;2022-09-12T14:26:35;4.85;;;3.00;;
68647;SDS011;55632;51.962;16.116;2022-09-12T14:31:39;8.10;;;4.35;;
68647;SDS011;55632;51.962;16.116;2022-09-12T14:36:49;7.90;;;4.50;;
68647;SDS011;55632;51.962;16.116;2022-09-12T14:42:28;7.57;;;4.22;;
68647;SDS011;55632;51.962;16.116;2022-09-12T14:47:26;2.67;;;2.47;;
68647;SDS011;55632;51.962;16.116;2022-09-12T14:52:32;14.68;;;6.45;;
68647;SDS011;55632;51.962;16.116;2022-09-12T14:57:37;4.25;;;2.67;;
68647;SDS011;55632;51.962;16.116;2022-09-12T15:02:40;2.90;;;2.60;;
68647;SDS011;55632;51.962;16.116;2022-09-12T15:08:00;5.35;;;2.72;;
68647;SDS011;55632;51.962;16.116;2022-09-12T15:18:09;6.93;;;5.65;;
68647;SDS011;55632;51.962;16.116;2022-09-12T15:23:44;4.88;;;3.35;;
68647;SDS011;55632;51.962;16.116;2022-09-12T15:28:43;6.90;;;3.50;;
68647;SDS011;55632;51.962;16.116;2022-09-12T15:33:45;6.53;;;4.00;;
68647;SDS011;55632;51.962;16.116;2022-09-12T15:38:46;8.30;;;4.10;;
68647;SDS011;55632;51.962;16.116;2022-09-12T15:43:48;5.57;;;4.28;;
68647;SDS011;55632;51.962;16.116;2022-09-12T15:48:50;3.92;;;3.53;;
68647;SDS011;55632;51.962;16.116;2022-09-12T15:53:51;7.88;;;3.70;;
68647;SDS011;55632;51.962;16.116;2022-09-12T15:58:51;4.85;;;3.50;;
68647;SDS011;55632;51.962;16.116;2022-09-12T16:03:52;6.63;;;4.20;;
68647;SDS011;55632;51.962;16.116;2022-09-12T16:08:53;6.25;;;4.45;;
68647;SDS011;55632;51.962;16.116;2022-09-12T16:13:54;7.38;;;4.15;;
68647;SDS011;55632;51.962;16.116;2022-09-12T16:18:56;27.50;;;19.20;;
68647;SDS011;55632;51.962;16.116;2022-09-12T16:23:56;24.88;;;14.60;;
68647;SDS011;55632;51.962;16.116;2022-09-12T16:28:57;12.02;;;6.03;;
68647;SDS011;55632;51.962;16.116;2022-09-12T16:33:59;12.40;;;5.38;;
68647;SDS011;55632;51.962;16.116;2022-09-12T16:39:00;13.50;;;6.30;;
68647;SDS011;55632;51.962;16.116;2022-09-12T16:44:00;10.73;;;7.68;;
68647;SDS011;55632;51.962;16.116;2022-09-12T16:49:01;32.85;;;17.88;;
68647;SDS011;55632;51.962;16.116;2022-09-12T16:54:05;11.85;;;7.60;;
68647;SDS011;55632;51.962;16.116;2022-09-12T16:59:06;24.52;;;15.32;;
68647;SDS011;55632;51.962;16.116;2022-09-12T17:04:09;19.73;;;14.20;;
68647;SDS011;55632;51.962;16.116;2022-09-12T17:09:13;25.30;;;14.65;;
68647;SDS011;55632;51.962;16.116;2022-09-12T17:14:17;28.00;;;16.40;;
68647;SDS011;55632;51.962;16.116;2022-09-12T17:19:19;25.83;;;15.45;;
68647;SDS011;55632;51.962;16.116;2022-09-12T17:24:25;76.57;;;44.10;;
68647;SDS011;55632;51.962;16.116;2022-09-12T17:29:26;22.45;;;12.75;;
68647;SDS011;55632;51.962;16.116;2022-09-12T17:34:27;13.68;;;8.88;;
68647;SDS011;55632;51.962;16.116;2022-09-12T17:39:28;14.77;;;9.25;;
68647;SDS011;55632;51.962;16.116;2022-09-12T17:44:29;23.55;;;13.63;;
68647;SDS011;55632;51.962;16.116;2022-09-12T17:49:31;11.68;;;7.60;;
68647;SDS011;55632;51.962;16.116;2022-09-12T17:54:32;6.13;;;5.05;;
68647;SDS011;55632;51.962;16.116;2022-09-12T17:59:33;8.40;;;5.55;;
68647;SDS011;55632;51.962;16.116;2022-09-12T18:04:34;46.67;;;22.92;;
68647;SDS011;55632;51.962;16.116;2022-09-12T18:09:35;41.40;;;18.58;;
68647;SDS011;55632;51.962;16.116;2022-09-12T18:14:35;77.47;;;40.35;;
68647;SDS011;55632;51.962;16.116;2022-09-12T18:19:37;46.45;;;22.25;;
68647;SDS011;55632;51.962;16.116;2022-09-12T18:24:43;19.75;;;12.63;;
68647;SDS011;55632;51.962;16.116;2022-09-12T18:29:44;43.58;;;25.02;;
68647;SDS011;55632;51.962;16.116;2022-09-12T18:34:45;47.97;;;23.83;;
68647;SDS011;55632;51.962;16.116;2022-09-12T18:39:48;42.20;;;18.42;;
68647;SDS011;55632;51.962;16.116;2022-09-12T18:44:49;31.02;;;13.68;;
68647;SDS011;55632;51.962;16.116;2022-09-12T18:49:50;41.90;;;17.58;;
68647;SDS011;55632;51.962;16.116;2022-09-12T18:54:51;50.20;;;19.50;;
68647;SDS011;55632;51.962;16.116;2022-09-12T18:59:54;10.57;;;6.00;;
68647;SDS011;55632;51.962;16.116;2022-09-12T19:04:58;50.47;;;20.77;;
68647;SDS011;55632;51.962;16.116;2022-09-12T19:10:00;15.00;;;8.45;;
68647;SDS011;55632;51.962;16.116;2022-09-12T19:15:02;14.05;;;5.95;;
68647;SDS011;55632;51.962;16.116;2022-09-12T19:20:03;11.05;;;7.90;;
68647;SDS011;55632;51.962;16.116;2022-09-12T19:25:05;21.58;;;13.20;;
68647;SDS011;55632;51.962;16.116;2022-09-12T19:30:07;9.13;;;6.47;;
68647;SDS011;55632;51.962;16.116;2022-09-12T19:35:09;16.38;;;10.32;;
68647;SDS011;55632;51.962;16.116;2022-09-12T19:40:12;15.10;;;8.18;;
68647;SDS011;55632;51.962;16.116;2022-09-12T19:45:14;20.10;;;10.80;;
68647;SDS011;55632;51.962;16.116;2022-09-12T19:50:15;43.17;;;21.10;;
68647;SDS011;55632;51.962;16.116;2022-09-12T19:55:15;19.83;;;12.50;;
68647;SDS011;55632;51.962;16.116;2022-09-12T20:00:16;15.90;;;9.80;;
68647;SDS011;55632;51.962;16.116;2022-09-12T20:05:18;9.40;;;6.60;;
68647;SDS011;55632;51.962;16.116;2022-09-12T20:10:19;5.55;;;3.63;;
68647;SDS011;55632;51.962;16.116;2022-09-12T20:15:20;8.73;;;5.68;;
68647;SDS011;55632;51.962;16.116;2022-09-12T20:20:22;14.10;;;6.95;;
68647;SDS011;55632;51.962;16.116;2022-09-12T20:25:28;10.00;;;6.88;;
68647;SDS011;55632;51.962;16.116;2022-09-12T20:30:29;7.68;;;6.85;;
68647;SDS011;55632;51.962;16.116;2022-09-12T20:35:30;6.68;;;5.40;;
68647;SDS011;55632;51.962;16.116;2022-09-12T20:40:34;7.47;;;5.43;;
68647;SDS011;55632;51.962;16.116;2022-09-12T20:45:38;7.10;;;5.68;;
68647;SDS011;55632;51.962;16.116;2022-09-12T20:50:40;8.48;;;6.80;;
68647;SDS011;55632;51.962;16.116;2022-09-12T20:55:48;7.22;;;5.25;;
68647;SDS011;55632;51.962;16.116;2022-09-12T21:00:50;8.18;;;5.10;;
68647;SDS011;55632;51.962;16.116;2022-09-12T21:05:51;7.00;;;5.22;;
68647;SDS011;55632;51.962;16.116;2022-09-12T21:10:52;6.60;;;4.93;;
68647;SDS011;55632;51.962;16.116;2022-09-12T21:15:59;8.32;;;5.47;;
68647;SDS011;55632;51.962;16.116;2022-09-12T21:21:05;9.57;;;6.97;;
68647;SDS011;55632;51.962;16.116;2022-09-12T21:26:07;12.13;;;9.02;;
68647;SDS011;55632;51.962;16.116;2022-09-12T21:31:07;13.65;;;8.38;;
68647;SDS011;55632;51.962;16.116;2022-09-12T21:36:09;14.10;;;8.13;;
68647;SDS011;55632;51.962;16.116;2022-09-12T21:41:11;11.45;;;7.47;;
68647;SDS011;55632;51.962;16.116;2022-09-12T21:46:15;15.43;;;10.63;;
68647;SDS011;55632;51.962;16.116;2022-09-12T21:51:19;13.30;;;9.32;;
68647;SDS011;55632;51.962;16.116;2022-09-12T21:56:20;17.08;;;10.40;;
68647;SDS011;55632;51.962;16.116;2022-09-12T22:01:20;16.35;;;10.40;;
68647;SDS011;55632;51.962;16.116;2022-09-12T22:06:21;20.38;;;13.68;;
68647;SDS011;55632;51.962;16.116;2022-09-12T22:11:22;12.50;;;8.93;;
68647;SDS011;55632;51.962;16.116;2022-09-12T22:16:23;20.00;;;13.13;;
68647;SDS011;55632;51.962;16.116;2022-09-12T22:21:24;16.40;;;11.30;;
68647;SDS011;55632;51.962;16.116;2022-09-12T22:26:24;18.90;;;12.85;;
68647;SDS011;55632;51.962;16.116;2022-09-12T22:31:26;16.65;;;12.40;;
68647;SDS011;55632;51.962;16.116;2022-09-12T22:36:27;13.85;;;8.00;;
68647;SDS011;55632;51.962;16.116;2022-09-12T22:41:28;10.70;;;8.73;;
68647;SDS011;55632;51.962;16.116;2022-09-12T22:46:32;13.35;;;9.52;;
68647;SDS011;55632;51.962;16.116;2022-09-12T22:51:33;13.90;;;9.57;;
68647;SDS011;55632;51.962;16.116;2022-09-12T22:56:35;20.00;;;13.55;;
68647;SDS011;55632;51.962;16.116;2022-09-12T23:01:35;27.30;;;13.15;;
68647;SDS011;55632;51.962;16.116;2022-09-12T23:06:36;17.40;;;10.68;;
68647;SDS011;55632;51.962;16.116;2022-09-12T23:11:37;18.83;;;11.73;;
68647;SDS011;55632;51.962;16.116;2022-09-12T23:16:38;13.98;;;9.10;;
68647;SDS011;55632;51.962;16.116;2022-09-12T23:21:38;13.05;;;9.38;;
68647;SDS011;55632;51.962;16.116;2022-09-12T23:26:39;13.05;;;8.40;;
68647;SDS011;55632;51.962;16.116;2022-09-12T23:31:40;11.55;;;8.75;;
68647;SDS011;55632;51.962;16.116;2022-09-12T23:36:40;15.40;;;8.88;;
68647;SDS011;55632;51.962;16.116;2022-09-12T23:41:41;10.23;;;7.63;;
68647;SDS011;55632;51.962;16.116;2022-09-12T23:46:42;10.73;;;8.00;;
68647;SDS011;55632;51.962;16.116;2022-09-12T23:51:43;8.35;;;6.60;;
68647;SDS011;55632;51.962;16.116;2022-09-12T23:56:44;16.27;;;6.88;;
